sensor_id;sensor_type;location;lat;lon;timestamp;pressure;altitude;pressure_sealevel;temperature;humidity
2268;BME280;11052;43.338;25.502;2022-10-17T00:00:32;102174.13;;;3.78;100.00
2268;BME280;11052;43.338;25.502;2022-10-17T00:03:00;102176.53;;;3.72;100.00
2268;BME280;11052;43.338;25.502;2022-10-17T00:05:27;102172.31;;;3.74;100.00
2268;BME280;11052;43.338;25.502;2022-10-17T00:07:54;102173.84;;;3.67;100.00
2268;BME280;11052;43.338;25.502;2022-10-17T00:10:22;102172.13;;;3.68;100.00
2268;BME280;11052;43.338;25.502;2022-10-17T00:12:51;102177.34;;;3.71;100.00
2268;BME280;11052;43.338;25.502;2022-10-17T00:15:19;102174.91;;;3.75;100.00
2268;BME280;11052;43.338;25.502;2022-10-17T00:17:46;102181.63;;;3.70;100.00
2268;BME280;11052;43.338;25.502;2022-10-17T00:20:14;102177.28;;;3.68;100.00
2268;BME280;11052;43.338;25.502;2022-10-17T00:22:41;102179.88;;;3.69;100.00
2268;BME280;11052;43.338;25.502;2022-10-17T00:25:08;102176.44;;;3.69;100.00
2268;BME280;11052;43.338;25.502;2022-10-17T00:27:36;102189.19;;;3.66;100.00
2268;BME280;11052;43.338;25.502;2022-10-17T00:30:09;102176.28;;;3.62;100.00
2268;BME280;11052;43.338;25.502;2022-10-17T00:32:36;102172.88;;;3.63;100.00
2268;BME280;11052;43.338;25.502;2022-10-17T00:35:04;102179.44;;;3.54;100.00
2268;BME280;11052;43.338;25.502;2022-10-17T00:37:32;102168.22;;;3.50;100.00
2268;BME280;11052;43.338;25.502;2022-10-17T00:39:59;102171.66;;;3.51;100.00
2268;BME280;11052;43.338;25.502;2022-10-17T00:42:26;102171.47;;;3.43;100.00
2268;BME280;11052;43.338;25.502;2022-10-17T00:45:05;102176.53;;;3.42;100.00
2268;BME280;11052;43.338;25.502;2022-10-17T00:47:34;102180.16;;;3.20;100.00
2268;BME280;11052;43.338;25.502;2022-10-17T00:50:03;102176.22;;;3.31;100.00
2268;BME280;11052;43.338;25.502;2022-10-17T00:52:31;102180.50;;;3.31;100.00
2268;BME280;11052;43.338;25.502;2022-10-17T00:55:00;102177.28;;;3.38;100.00
2268;BME280;11052;43.338;25.502;2022-10-17T00:57:30;102180.72;;;3.38;100.00
2268;BME280;11052;43.338;25.502;2022-10-17T00:59:58;102184.66;;;3.27;100.00
2268;BME280;11052;43.338;25.502;2022-10-17T01:02:27;102187.16;;;3.25;100.00
2268;BME280;11052;43.338;25.502;2022-10-17T01:04:56;102180.41;;;3.27;100.00
2268;BME280;11052;43.338;25.502;2022-10-17T01:07:26;102177.06;;;3.30;100.00
2268;BME280;11052;43.338;25.502;2022-10-17T01:09:54;102182.13;;;3.28;100.00
2268;BME280;11052;43.338;25.502;2022-10-17T01:12:23;102180.34;;;3.26;100.00
2268;BME280;11052;43.338;25.502;2022-10-17T01:15:00;102186.28;;;3.25;100.00
2268;BME280;11052;43.338;25.502;2022-10-17T01:17:35;102182.63;;;3.17;100.00
2268;BME280;11052;43.338;25.502;2022-10-17T01:23:30;102184.28;;;3.15;100.00
2268;BME280;11052;43.338;25.502;2022-10-17T01:26:15;102176.44;;;3.10;100.00
2268;BME280;11052;43.338;25.502;2022-10-17T01:29:07;102179.84;;;3.09;100.00
2268;BME280;11052;43.338;25.502;2022-10-17T01:31:44;102178.88;;;3.06;100.00
2268;BME280;11052;43.338;25.502;2022-10-17T01:34:15;102183.81;;;3.00;100.00
2268;BME280;11052;43.338;25.502;2022-10-17T01:36:49;102188.88;;;2.98;100.00
2268;BME280;11052;43.338;25.502;2022-10-17T01:39:22;102189.84;;;3.02;100.00
2268;BME280;11052;43.338;25.502;2022-10-17T01:41:56;102198.25;;;2.97;100.00
2268;BME280;11052;43.338;25.502;2022-10-17T01:44:29;102198.09;;;2.93;100.00
2268;BME280;11052;43.338;25.502;2022-10-17T01:47:03;102200.72;;;2.94;100.00
2268;BME280;11052;43.338;25.502;2022-10-17T01:49:33;102204.00;;;2.90;100.00
2268;BME280;11052;43.338;25.502;2022-10-17T01:52:06;102196.38;;;2.92;100.00
2268;BME280;11052;43.338;25.502;2022-10-17T01:54:38;102198.94;;;2.92;100.00
2268;BME280;11052;43.338;25.502;2022-10-17T01:57:14;102205.53;;;2.85;100.00
2268;BME280;11052;43.338;25.502;2022-10-17T01:59:46;102204.78;;;2.88;100.00
2268;BME280;11052;43.338;25.502;2022-10-17T02:02:17;102203.72;;;2.81;100.00
2268;BME280;11052;43.338;25.502;2022-10-17T02:04:47;102211.28;;;2.78;100.00
2268;BME280;11052;43.338;25.502;2022-10-17T02:07:16;102205.06;;;2.70;100.00
2268;BME280;11052;43.338;25.502;2022-10-17T02:09:43;102209.34;;;2.71;100.00
2268;BME280;11052;43.338;25.502;2022-10-17T02:12:35;102214.31;;;2.67;100.00
2268;BME280;11052;43.338;25.502;2022-10-17T02:15:19;102216.84;;;2.65;100.00
2268;BME280;11052;43.338;25.502;2022-10-17T02:17:58;102228.72;;;2.63;100.00
2268;BME280;11052;43.338;25.502;2022-10-17T02:20:38;102225.22;;;2.61;100.00
2268;BME280;11052;43.338;25.502;2022-10-17T02:23:10;102220.97;;;2.60;100.00
2268;BME280;11052;43.338;25.502;2022-10-17T02:25:43;102224.47;;;2.63;100.00
2268;BME280;11052;43.338;25.502;2022-10-17T02:28:19;102229.53;;;2.62;100.00
2268;BME280;11052;43.338;25.502;2022-10-17T02:30:52;102229.47;;;2.59;100.00
2268;BME280;11052;43.338;25.502;2022-10-17T02:33:24;102228.53;;;2.57;100.00
2268;BME280;11052;43.338;25.502;2022-10-17T02:35:57;102237.81;;;2.53;100.00
2268;BME280;11052;43.338;25.502;2022-10-17T02:38:27;102230.84;;;2.49;100.00
2268;BME280;11052;43.338;25.502;2022-10-17T02:40:56;102237.66;;;2.49;100.00
2268;BME280;11052;43.338;25.502;2022-10-17T02:43:24;102244.44;;;2.48;100.00
2268;BME280;11052;43.338;25.502;2022-10-17T02:45:51;102250.03;;;2.13;100.00
2268;BME280;11052;43.338;25.502;2022-10-17T02:48:33;102239.75;;;2.11;100.00
2268;BME280;11052;43.338;25.502;2022-10-17T02:51:06;102250.78;;;2.10;100.00
2268;BME280;11052;43.338;25.502;2022-10-17T02:53:39;102249.25;;;2.15;100.00
2268;BME280;11052;43.338;25.502;2022-10-17T02:56:19;102246.88;;;2.20;100.00
2268;BME280;11052;43.338;25.502;2022-10-17T02:58:50;102245.78;;;2.13;100.00
2268;BME280;11052;43.338;25.502;2022-10-17T03:01:18;102248.56;;;2.19;100.00
2268;BME280;11052;43.338;25.502;2022-10-17T03:03:47;102254.41;;;1.93;100.00
2268;BME280;11052;43.338;25.502;2022-10-17T03:06:14;102258.00;;;1.98;100.00
2268;BME280;11052;43.338;25.502;2022-10-17T03:08:42;102253.66;;;1.95;100.00
2268;BME280;11052;43.338;25.502;2022-10-17T03:11:09;102252.94;;;2.00;100.00
2268;BME280;11052;43.338;25.502;2022-10-17T03:13:36;102253.81;;;2.00;100.00
2268;BME280;11052;43.338;25.502;2022-10-17T03:16:03;102255.94;;;1.88;100.00
2268;BME280;11052;43.338;25.502;2022-10-17T03:18:30;102257.78;;;1.92;100.00
2268;BME280;11052;43.338;25.502;2022-10-17T03:20:59;102250.66;;;1.83;100.00
2268;BME280;11052;43.338;25.502;2022-10-17T03:23:26;102255.47;;;1.76;100.00
2268;BME280;11052;43.338;25.502;2022-10-17T03:25:53;102260.34;;;1.68;100.00
2268;BME280;11052;43.338;25.502;2022-10-17T03:28:20;102265.81;;;1.79;100.00
2268;BME280;11052;43.338;25.502;2022-10-17T03:30:47;102268.38;;;1.79;100.00
2268;BME280;11052;43.338;25.502;2022-10-17T03:33:14;102265.66;;;1.74;100.00
2268;BME280;11052;43.338;25.502;2022-10-17T03:35:41;102262.94;;;1.70;100.00
2268;BME280;11052;43.338;25.502;2022-10-17T03:38:10;102264.56;;;1.68;100.00
2268;BME280;11052;43.338;25.502;2022-10-17T03:40:37;102265.38;;;1.67;100.00
2268;BME280;11052;43.338;25.502;2022-10-17T03:43:04;102269.13;;;1.76;100.00
2268;BME280;11052;43.338;25.502;2022-10-17T03:45:32;102273.59;;;1.82;100.00
2268;BME280;11052;43.338;25.502;2022-10-17T03:47:59;102278.47;;;1.76;100.00
2268;BME280;11052;43.338;25.502;2022-10-17T03:50:26;102285.19;;;1.72;100.00
2268;BME280;11052;43.338;25.502;2022-10-17T03:52:53;102282.66;;;1.72;100.00
2268;BME280;11052;43.338;25.502;2022-10-17T03:55:23;102286.88;;;1.72;100.00
2268;BME280;11052;43.338;25.502;2022-10-17T03:57:50;102286.81;;;1.70;100.00
2268;BME280;11052;43.338;25.502;2022-10-17T04:00:17;102291.06;;;1.70;100.00
2268;BME280;11052;43.338;25.502;2022-10-17T04:02:44;102291.94;;;1.70;100.00
2268;BME280;11052;43.338;25.502;2022-10-17T04:05:11;102295.88;;;1.62;100.00
2268;BME280;11052;43.338;25.502;2022-10-17T04:07:39;102297.38;;;1.57;100.00
2268;BME280;11052;43.338;25.502;2022-10-17T04:10:07;102297.50;;;1.60;100.00
2268;BME280;11052;43.338;25.502;2022-10-17T04:12:36;102295.72;;;1.57;100.00
2268;BME280;11052;43.338;25.502;2022-10-17T04:15:04;102294.91;;;1.58;100.00
2268;BME280;11052;43.338;25.502;2022-10-17T04:17:32;102301.69;;;1.58;100.00
2268;BME280;11052;43.338;25.502;2022-10-17T04:19:59;102295.75;;;1.59;100.00
2268;BME280;11052;43.338;25.502;2022-10-17T04:22:26;102296.53;;;1.56;100.00
2268;BME280;11052;43.338;25.502;2022-10-17T04:24:53;102296.22;;;1.49;100.00
2268;BME280;11052;43.338;25.502;2022-10-17T04:27:20;102296.03;;;1.44;100.00
2268;BME280;11052;43.338;25.502;2022-10-17T04:29:49;102296.84;;;1.43;100.00
2268;BME280;11052;43.338;25.502;2022-10-17T04:32:16;102302.19;;;1.49;100.00
2268;BME280;11052;43.338;25.502;2022-10-17T04:34:43;102308.19;;;1.50;100.00
2268;BME280;11052;43.338;25.502;2022-10-17T04:37:14;102302.91;;;1.45;100.00
2268;BME280;11052;43.338;25.502;2022-10-17T04:39:41;102316.53;;;1.46;100.00
2268;BME280;11052;43.338;25.502;2022-10-17T04:42:08;102319.03;;;1.44;100.00
2268;BME280;11052;43.338;25.502;2022-10-17T04:44:35;102319.91;;;1.45;100.00
2268;BME280;11052;43.338;25.502;2022-10-17T04:47:04;102326.22;;;1.32;100.00
2268;BME280;11052;43.338;25.502;2022-10-17T04:49:31;102324.72;;;1.37;100.00
2268;BME280;11052;43.338;25.502;2022-10-17T04:51:58;102336.06;;;1.44;100.00
2268;BME280;11052;43.338;25.502;2022-10-17T04:54:25;102337.03;;;1.47;100.00
2268;BME280;11052;43.338;25.502;2022-10-17T04:56:53;102339.78;;;1.52;100.00
2268;BME280;11052;43.338;25.502;2022-10-17T04:59:20;102340.97;;;1.60;100.00
2268;BME280;11052;43.338;25.502;2022-10-17T05:01:47;102348.75;;;1.42;100.00
2268;BME280;11052;43.338;25.502;2022-10-17T05:04:16;102352.13;;;1.41;100.00
2268;BME280;11052;43.338;25.502;2022-10-17T05:06:43;102356.22;;;1.58;100.00
2268;BME280;11052;43.338;25.502;2022-10-17T05:09:11;102351.94;;;1.80;100.00
2268;BME280;11052;43.338;25.502;2022-10-17T05:11:38;102354.91;;;2.13;100.00
2268;BME280;11052;43.338;25.502;2022-10-17T05:14:05;102359.53;;;2.45;100.00
2268;BME280;11052;43.338;25.502;2022-10-17T05:16:32;102346.25;;;2.81;100.00
2268;BME280;11052;43.338;25.502;2022-10-17T05:19:00;102355.94;;;3.15;100.00
2268;BME280;11052;43.338;25.502;2022-10-17T05:21:29;102353.06;;;3.58;100.00
2268;BME280;11052;43.338;25.502;2022-10-17T05:23:57;102356.91;;;3.99;100.00
2268;BME280;11052;43.338;25.502;2022-10-17T05:26:24;102353.81;;;4.41;100.00
2268;BME280;11052;43.338;25.502;2022-10-17T05:28:52;102361.00;;;4.84;100.00
2268;BME280;11052;43.338;25.502;2022-10-17T05:31:19;102359.38;;;5.22;100.00
2268;BME280;11052;43.338;25.502;2022-10-17T05:33:46;102360.78;;;5.44;100.00
2268;BME280;11052;43.338;25.502;2022-10-17T05:36:13;102367.78;;;5.49;100.00
2268;BME280;11052;43.338;25.502;2022-10-17T05:38:42;102361.66;;;5.44;100.00
2268;BME280;11052;43.338;25.502;2022-10-17T05:41:09;102366.66;;;5.74;100.00
2268;BME280;11052;43.338;25.502;2022-10-17T05:43:36;102369.97;;;6.06;100.00
2268;BME280;11052;43.338;25.502;2022-10-17T05:46:04;102371.22;;;6.25;100.00
2268;BME280;11052;43.338;25.502;2022-10-17T05:48:32;102379.28;;;6.42;100.00
2268;BME280;11052;43.338;25.502;2022-10-17T05:51:00;102373.19;;;6.80;100.00
2268;BME280;11052;43.338;25.502;2022-10-17T05:53:29;102383.19;;;7.12;100.00
2268;BME280;11052;43.338;25.502;2022-10-17T05:56:00;102386.41;;;7.48;100.00
2268;BME280;11052;43.338;25.502;2022-10-17T05:58:28;102391.22;;;7.84;100.00
2268;BME280;11052;43.338;25.502;2022-10-17T06:00:58;102388.25;;;8.17;100.00
2268;BME280;11052;43.338;25.502;2022-10-17T06:03:26;102381.69;;;8.39;100.00
2268;BME280;11052;43.338;25.502;2022-10-17T06:05:53;102387.88;;;8.52;100.00
2268;BME280;11052;43.338;25.502;2022-10-17T06:08:21;102386.31;;;8.65;100.00
2268;BME280;11052;43.338;25.502;2022-10-17T06:10:48;102393.56;;;9.01;100.00
2268;BME280;11052;43.338;25.502;2022-10-17T06:13:18;102400.72;;;9.26;100.00
2268;BME280;11052;43.338;25.502;2022-10-17T06:15:45;102397.50;;;9.53;100.00
2268;BME280;11052;43.338;25.502;2022-10-17T06:18:12;102395.91;;;9.75;100.00
2268;BME280;11052;43.338;25.502;2022-10-17T06:20:40;102391.81;;;10.07;100.00
2268;BME280;11052;43.338;25.502;2022-10-17T06:23:07;102389.19;;;10.06;100.00
2268;BME280;11052;43.338;25.502;2022-10-17T06:25:34;102392.59;;;9.97;100.00
2268;BME280;11052;43.338;25.502;2022-10-17T06:28:01;102403.19;;;10.28;100.00
2268;BME280;11052;43.338;25.502;2022-10-17T06:30:30;102409.25;;;10.31;100.00
2268;BME280;11052;43.338;25.502;2022-10-17T06:32:58;102405.78;;;10.31;100.00
2268;BME280;11052;43.338;25.502;2022-10-17T06:35:25;102408.41;;;10.40;100.00
2268;BME280;11052;43.338;25.502;2022-10-17T06:37:53;102410.28;;;10.85;100.00
2268;BME280;11052;43.338;25.502;2022-10-17T06:40:20;102403.41;;;10.96;100.00
2268;BME280;11052;43.338;25.502;2022-10-17T06:42:48;102407.75;;;11.12;100.00
2268;BME280;11052;43.338;25.502;2022-10-17T06:45:15;102416.44;;;11.22;100.00
2268;BME280;11052;43.338;25.502;2022-10-17T06:47:44;102412.09;;;11.44;100.00
2268;BME280;11052;43.338;25.502;2022-10-17T06:50:11;102419.00;;;11.74;100.00
2268;BME280;11052;43.338;25.502;2022-10-17T06:52:38;102414.69;;;11.93;100.00
2268;BME280;11052;43.338;25.502;2022-10-17T06:55:06;102416.41;;;12.01;100.00
2268;BME280;11052;43.338;25.502;2022-10-17T06:57:33;102404.28;;;11.99;100.00
2268;BME280;11052;43.338;25.502;2022-10-17T07:00:00;102417.28;;;11.94;100.00
2268;BME280;11052;43.338;25.502;2022-10-17T07:02:27;102414.59;;;12.25;100.00
2268;BME280;11052;43.338;25.502;2022-10-17T07:04:56;102412.88;;;12.22;100.00
2268;BME280;11052;43.338;25.502;2022-10-17T07:07:23;102410.19;;;12.48;100.00
2268;BME280;11052;43.338;25.502;2022-10-17T07:09:50;102417.91;;;12.66;100.00
2268;BME280;11052;43.338;25.502;2022-10-17T07:12:17;102429.28;;;12.41;100.00
2268;BME280;11052;43.338;25.502;2022-10-17T07:14:44;102420.47;;;12.72;100.00
2268;BME280;11052;43.338;25.502;2022-10-17T07:17:12;102415.94;;;13.02;100.00
2268;BME280;11052;43.338;25.502;2022-10-17T07:19:39;102421.94;;;13.19;100.00
2268;BME280;11052;43.338;25.502;2022-10-17T07:22:09;102420.28;;;13.04;100.00
2268;BME280;11052;43.338;25.502;2022-10-17T07:24:36;102424.53;;;13.22;100.00
2268;BME280;11052;43.338;25.502;2022-10-17T07:27:03;102427.75;;;13.56;100.00
2268;BME280;11052;43.338;25.502;2022-10-17T07:29:30;102428.44;;;13.78;100.00
2268;BME280;11052;43.338;25.502;2022-10-17T07:31:57;102429.31;;;13.75;100.00
2268;BME280;11052;43.338;25.502;2022-10-17T07:34:25;102431.59;;;14.09;100.00
2268;BME280;11052;43.338;25.502;2022-10-17T07:36:55;102427.88;;;14.30;100.00
2268;BME280;11052;43.338;25.502;2022-10-17T07:39:24;102429.47;;;14.46;100.00
2268;BME280;11052;43.338;25.502;2022-10-17T07:41:51;102424.88;;;14.66;100.00
2268;BME280;11052;43.338;25.502;2022-10-17T07:44:19;102427.97;;;14.93;100.00
2268;BME280;11052;43.338;25.502;2022-10-17T07:46:46;102424.84;;;15.26;100.00
2268;BME280;11052;43.338;25.502;2022-10-17T07:49:13;102429.50;;;15.63;100.00
2268;BME280;11052;43.338;25.502;2022-10-17T07:51:40;102427.97;;;15.50;100.00
2268;BME280;11052;43.338;25.502;2022-10-17T07:54:07;102425.50;;;15.40;100.00
2268;BME280;11052;43.338;25.502;2022-10-17T07:56:36;102419.41;;;15.41;100.00
2268;BME280;11052;43.338;25.502;2022-10-17T07:59:03;102421.28;;;15.32;95.02
2268;BME280;11052;43.338;25.502;2022-10-17T08:01:30;102423.19;;;15.21;100.00
2268;BME280;11052;43.338;25.502;2022-10-17T08:03:57;102424.66;;;15.40;96.83
2268;BME280;11052;43.338;25.502;2022-10-17T08:06:25;102422.38;;;15.71;89.77
2268;BME280;11052;43.338;25.502;2022-10-17T08:08:52;102412.97;;;15.61;84.92
2268;BME280;11052;43.338;25.502;2022-10-17T08:11:19;102410.59;;;15.47;85.40
2268;BME280;11052;43.338;25.502;2022-10-17T08:13:48;102407.13;;;15.47;87.00
2268;BME280;11052;43.338;25.502;2022-10-17T08:16:15;102404.44;;;15.51;83.37
2268;BME280;11052;43.338;25.502;2022-10-17T08:18:43;102402.28;;;15.74;82.11
2268;BME280;11052;43.338;25.502;2022-10-17T08:21:11;102397.13;;;15.70;79.48
2268;BME280;11052;43.338;25.502;2022-10-17T08:23:39;102401.09;;;15.92;81.03
2268;BME280;11052;43.338;25.502;2022-10-17T08:26:07;102397.06;;;16.21;73.80
2268;BME280;11052;43.338;25.502;2022-10-17T08:28:35;102396.34;;;16.54;72.94
2268;BME280;11052;43.338;25.502;2022-10-17T08:31:06;102395.97;;;16.73;74.72
2268;BME280;11052;43.338;25.502;2022-10-17T08:33:34;102393.28;;;16.76;71.97
2268;BME280;11052;43.338;25.502;2022-10-17T08:36:02;102400.78;;;16.92;70.02
2268;BME280;11052;43.338;25.502;2022-10-17T08:38:30;102397.25;;;17.30;67.74
2268;BME280;11052;43.338;25.502;2022-10-17T08:40:59;102399.28;;;17.53;68.52
2268;BME280;11052;43.338;25.502;2022-10-17T08:43:45;102397.97;;;17.71;64.39
2268;BME280;11052;43.338;25.502;2022-10-17T08:46:17;102407.25;;;17.84;64.08
2268;BME280;11052;43.338;25.502;2022-10-17T08:48:47;102399.06;;;17.96;60.80
2268;BME280;11052;43.338;25.502;2022-10-17T08:51:18;102402.50;;;17.98;59.83
2268;BME280;11052;43.338;25.502;2022-10-17T08:53:50;102403.84;;;18.13;56.80
2268;BME280;11052;43.338;25.502;2022-10-17T08:56:19;102399.31;;;18.48;54.31
2268;BME280;11052;43.338;25.502;2022-10-17T08:58:47;102402.38;;;18.32;52.74
2268;BME280;11052;43.338;25.502;2022-10-17T09:01:28;102399.88;;;18.28;53.96
2268;BME280;11052;43.338;25.502;2022-10-17T09:04:32;102404.16;;;18.32;51.82
2268;BME280;11052;43.338;25.502;2022-10-17T09:07:05;102408.56;;;18.00;53.13
2268;BME280;11052;43.338;25.502;2022-10-17T09:09:41;102403.03;;;17.79;52.92
2268;BME280;11052;43.338;25.502;2022-10-17T09:12:17;102394.94;;;17.86;51.99
2268;BME280;11052;43.338;25.502;2022-10-17T09:15:18;102396.44;;;17.96;51.97
2268;BME280;11052;43.338;25.502;2022-10-17T09:17:54;102397.75;;;17.80;51.93
2268;BME280;11052;43.338;25.502;2022-10-17T09:20:26;102396.06;;;17.78;53.27
2268;BME280;11052;43.338;25.502;2022-10-17T09:22:57;102398.16;;;17.97;56.08
2268;BME280;11052;43.338;25.502;2022-10-17T09:25:26;102392.31;;;18.19;54.67
2268;BME280;11052;43.338;25.502;2022-10-17T09:27:58;102400.13;;;18.50;56.20
2268;BME280;11052;43.338;25.502;2022-10-17T09:30:34;102394.75;;;18.54;53.90
2268;BME280;11052;43.338;25.502;2022-10-17T09:33:11;102389.06;;;18.70;53.79
2268;BME280;11052;43.338;25.502;2022-10-17T09:35:40;102386.53;;;18.66;54.22
2268;BME280;11052;43.338;25.502;2022-10-17T09:38:16;102381.84;;;18.47;53.22
2268;BME280;11052;43.338;25.502;2022-10-17T09:40:45;102378.63;;;18.37;54.87
2268;BME280;11052;43.338;25.502;2022-10-17T09:43:16;102385.00;;;18.58;54.53
2268;BME280;11052;43.338;25.502;2022-10-17T09:45:50;102377.06;;;18.30;55.71
2268;BME280;11052;43.338;25.502;2022-10-17T09:48:25;102372.28;;;18.44;54.85
2268;BME280;11052;43.338;25.502;2022-10-17T09:50:55;102369.78;;;18.71;56.73
2268;BME280;11052;43.338;25.502;2022-10-17T09:53:25;102371.91;;;18.86;56.59
2268;BME280;11052;43.338;25.502;2022-10-17T09:55:59;102364.50;;;18.98;57.94
2268;BME280;11052;43.338;25.502;2022-10-17T09:58:39;102359.34;;;18.67;55.93
2268;BME280;11052;43.338;25.502;2022-10-17T10:01:28;102360.69;;;18.81;56.18
2268;BME280;11052;43.338;25.502;2022-10-17T10:04:11;102360.84;;;18.76;55.33
2268;BME280;11052;43.338;25.502;2022-10-17T10:06:38;102357.09;;;18.83;56.85
2268;BME280;11052;43.338;25.502;2022-10-17T10:09:20;102352.66;;;19.12;59.85
2268;BME280;11052;43.338;25.502;2022-10-17T10:11:49;102350.13;;;19.35;57.95
2268;BME280;11052;43.338;25.502;2022-10-17T10:14:20;102350.53;;;19.49;55.20
2268;BME280;11052;43.338;25.502;2022-10-17T10:16:48;102349.66;;;19.49;56.56
2268;BME280;11052;43.338;25.502;2022-10-17T10:19:27;102344.28;;;19.53;55.13
2268;BME280;11052;43.338;25.502;2022-10-17T10:21:56;102342.78;;;19.45;53.07
2268;BME280;11052;43.338;25.502;2022-10-17T10:24:23;102346.84;;;19.28;53.29
2268;BME280;11052;43.338;25.502;2022-10-17T10:26:53;102346.19;;;19.22;53.38
2268;BME280;11052;43.338;25.502;2022-10-17T10:29:27;102342.63;;;18.98;55.36
2268;BME280;11052;43.338;25.502;2022-10-17T10:31:57;102333.00;;;18.97;56.16
2268;BME280;11052;43.338;25.502;2022-10-17T10:34:28;102327.94;;;19.17;56.12
2268;BME280;11052;43.338;25.502;2022-10-17T10:37:00;102326.38;;;19.12;54.45
2268;BME280;11052;43.338;25.502;2022-10-17T10:39:35;102322.88;;;19.11;55.72
2268;BME280;11052;43.338;25.502;2022-10-17T10:42:06;102332.91;;;19.00;53.80
2268;BME280;11052;43.338;25.502;2022-10-17T10:44:37;102315.44;;;19.24;55.10
2268;BME280;11052;43.338;25.502;2022-10-17T10:47:18;102317.34;;;19.45;54.78
2268;BME280;11052;43.338;25.502;2022-10-17T10:49:50;102317.91;;;19.80;54.23
2268;BME280;11052;43.338;25.502;2022-10-17T10:52:24;102309.63;;;19.66;52.11
2268;BME280;11052;43.338;25.502;2022-10-17T10:54:58;102311.72;;;19.56;52.42
2268;BME280;11052;43.338;25.502;2022-10-17T10:57:32;102307.44;;;19.53;53.57
2268;BME280;11052;43.338;25.502;2022-10-17T11:00:04;102308.22;;;19.80;53.15
2268;BME280;11052;43.338;25.502;2022-10-17T11:02:39;102310.72;;;20.07;53.06
2268;BME280;11052;43.338;25.502;2022-10-17T11:05:16;102302.63;;;19.89;52.14
2268;BME280;11052;43.338;25.502;2022-10-17T11:07:50;102296.94;;;19.77;52.59
2268;BME280;11052;43.338;25.502;2022-10-17T11:10:25;102291.63;;;19.78;53.78
2268;BME280;11052;43.338;25.502;2022-10-17T11:13:02;102283.22;;;19.69;54.01
2268;BME280;11052;43.338;25.502;2022-10-17T11:15:34;102292.03;;;19.68;53.99
2268;BME280;11052;43.338;25.502;2022-10-17T11:18:05;102292.13;;;19.64;54.10
2268;BME280;11052;43.338;25.502;2022-10-17T11:20:39;102288.53;;;19.67;54.54
2268;BME280;11052;43.338;25.502;2022-10-17T11:23:15;102286.47;;;19.75;54.11
2268;BME280;11052;43.338;25.502;2022-10-17T11:25:46;102276.97;;;19.71;54.33
2268;BME280;11052;43.338;25.502;2022-10-17T11:28:17;102275.38;;;19.67;54.26
2268;BME280;11052;43.338;25.502;2022-10-17T11:30:48;102267.19;;;19.75;53.99
2268;BME280;11052;43.338;25.502;2022-10-17T11:33:24;102265.19;;;19.81;54.07
2268;BME280;11052;43.338;25.502;2022-10-17T11:35:58;102261.25;;;19.93;55.19
2268;BME280;11052;43.338;25.502;2022-10-17T11:38:40;102256.16;;;20.10;54.37
2268;BME280;11052;43.338;25.502;2022-10-17T11:41:14;102254.41;;;20.11;53.85
2268;BME280;11052;43.338;25.502;2022-10-17T11:43:48;102258.63;;;19.93;53.70
2268;BME280;11052;43.338;25.502;2022-10-17T11:46:20;102256.91;;;19.69;54.45
2268;BME280;11052;43.338;25.502;2022-10-17T11:49:01;102247.09;;;19.95;55.66
2268;BME280;11052;43.338;25.502;2022-10-17T11:51:37;102253.25;;;19.94;54.83
2268;BME280;11052;43.338;25.502;2022-10-17T11:54:11;102245.13;;;20.01;54.79
2268;BME280;11052;43.338;25.502;2022-10-17T11:56:42;102248.00;;;19.94;54.91
2268;BME280;11052;43.338;25.502;2022-10-17T11:59:43;102252.72;;;19.86;55.83
2268;BME280;11052;43.338;25.502;2022-10-17T12:02:18;102244.19;;;19.80;54.97
2268;BME280;11052;43.338;25.502;2022-10-17T12:04:52;102244.09;;;19.83;55.89
2268;BME280;11052;43.338;25.502;2022-10-17T12:07:32;102242.13;;;19.64;55.14
2268;BME280;11052;43.338;25.502;2022-10-17T12:10:13;102244.19;;;19.80;55.85
2268;BME280;11052;43.338;25.502;2022-10-17T12:12:42;102231.28;;;19.95;55.13
2268;BME280;11052;43.338;25.502;2022-10-17T12:15:29;102234.66;;;19.99;55.38
2268;BME280;11052;43.338;25.502;2022-10-17T12:17:58;102230.38;;;19.96;55.28
2268;BME280;11052;43.338;25.502;2022-10-17T12:20:30;102233.63;;;19.81;54.71
2268;BME280;11052;43.338;25.502;2022-10-17T12:23:03;102230.88;;;19.84;54.67
2268;BME280;11052;43.338;25.502;2022-10-17T12:25:33;102227.56;;;19.79;55.78
2268;BME280;11052;43.338;25.502;2022-10-17T12:28:16;102233.78;;;19.77;54.52
2268;BME280;11052;43.338;25.502;2022-10-17T12:30:53;102232.06;;;19.51;54.31
2268;BME280;11052;43.338;25.502;2022-10-17T12:33:26;102234.06;;;19.44;54.36
2268;BME280;11052;43.338;25.502;2022-10-17T12:41:56;102237.78;;;19.63;53.78
2268;BME280;11052;43.338;25.502;2022-10-17T12:44:35;102231.78;;;19.60;53.19
2268;BME280;11052;43.338;25.502;2022-10-17T12:47:27;102233.56;;;19.59;53.37
2268;BME280;11052;43.338;25.502;2022-10-17T12:49:54;102233.31;;;19.66;53.75
2268;BME280;11052;43.338;25.502;2022-10-17T12:52:26;102228.56;;;19.52;53.33
2268;BME280;11052;43.338;25.502;2022-10-17T12:55:11;102234.06;;;19.44;52.45
2268;BME280;11052;43.338;25.502;2022-10-17T12:57:49;102232.19;;;19.48;52.75
2268;BME280;11052;43.338;25.502;2022-10-17T13:00:21;102228.16;;;19.38;52.83
2268;BME280;11052;43.338;25.502;2022-10-17T13:02:52;102226.50;;;19.35;52.32
2268;BME280;11052;43.338;25.502;2022-10-17T13:05:25;102227.03;;;19.45;52.44
2268;BME280;11052;43.338;25.502;2022-10-17T13:07:54;102221.25;;;19.35;53.12
2268;BME280;11052;43.338;25.502;2022-10-17T13:10:24;102227.84;;;19.47;53.12
2268;BME280;11052;43.338;25.502;2022-10-17T13:13:06;102226.22;;;19.43;52.70
2268;BME280;11052;43.338;25.502;2022-10-17T13:15:35;102226.28;;;19.41;51.14